createdAt,value
2022-08-10T00:03:34.825Z,101855.34
2022-08-10T00:08:36.775Z,101855.00
2022-08-10T00:13:38.204Z,101857.09
2022-08-10T00:18:39.579Z,101857.56
2022-08-10T00:23:40.919Z,101848.22
2022-08-10T00:28:42.277Z,101846.78
2022-08-10T00:33:43.626Z,101848.09
2022-08-10T00:38:45.000Z,101850.94
2022-08-10T00:43:46.339Z,101844.06
2022-08-10T00:48:47.746Z,101845.69
2022-08-10T00:54:02.152Z,101843.88
2022-08-10T00:59:03.550Z,101846.97
2022-08-10T01:04:54.598Z,101842.91
2022-08-10T01:09:34.947Z,101849.78
2022-08-10T01:14:47.479Z,101845.31
2022-08-10T01:19:54.684Z,101838.00
2022-08-10T01:25:11.602Z,101837.56
2022-08-10T01:30:14.330Z,101848.91
2022-08-10T01:35:34.665Z,101849.31
2022-08-10T01:40:40.075Z,101837.13
2022-08-10T01:45:46.124Z,101846.19
2022-08-10T01:50:59.516Z,101845.75
2022-08-10T01:56:02.648Z,101851.59
2022-08-10T02:01:04.610Z,101846.69
2022-08-10T02:06:07.359Z,101853.94
2022-08-10T02:11:10.332Z,101859.97
2022-08-10T02:16:13.035Z,101862.75
2022-08-10T02:21:14.431Z,101856.19
2022-08-10T02:26:16.085Z,101863.44
2022-08-10T02:31:22.272Z,101863.19
2022-08-10T02:36:26.792Z,101870.22
2022-08-10T02:45:12.481Z,101863.47
2022-08-10T02:47:02.346Z,101869.25
2022-08-10T02:52:08.991Z,101867.53
2022-08-10T02:57:18.955Z,101866.03
2022-08-10T03:02:25.200Z,101870.22
2022-08-10T03:07:42.793Z,101868.25
2022-08-10T03:12:49.276Z,101863.22
2022-08-10T03:17:57.493Z,101859.72
2022-08-10T03:23:01.440Z,101865.53
2022-08-10T03:28:03.244Z,101866.66
2022-08-10T03:33:06.443Z,101874.44
2022-08-10T03:38:07.815Z,101874.44
2022-08-10T03:43:11.450Z,101871.19
2022-08-10T03:48:13.373Z,101867.31
2022-08-10T03:54:02.379Z,101871.56
2022-08-10T03:58:36.567Z,101869.94
2022-08-10T04:03:37.965Z,101873.38
2022-08-10T04:08:40.025Z,101878.84
2022-08-10T04:13:41.378Z,101882.47
2022-08-10T04:18:42.727Z,101883.66
2022-08-10T04:23:49.914Z,101883.19
2022-08-10T04:28:54.159Z,101881.66
2022-08-10T04:33:57.843Z,101885.38
2022-08-10T04:38:59.615Z,101885.97
2022-08-10T04:44:01.143Z,101880.47
2022-08-10T04:49:02.591Z,101887.19
2022-08-10T04:54:07.202Z,101891.50
2022-08-10T04:59:10.391Z,101893.66
2022-08-10T05:04:34.974Z,101886.59
2022-08-10T05:09:33.096Z,101895.28
2022-08-10T05:14:54.723Z,101885.19
2022-08-10T05:20:03.032Z,101891.38
2022-08-10T05:25:08.126Z,101887.28
2022-08-10T05:30:11.253Z,101893.16
2022-08-10T05:35:12.649Z,101892.13
2022-08-10T05:40:14.051Z,101896.03
2022-08-10T05:45:26.655Z,101895.41
2022-08-10T05:50:31.069Z,101891.16
2022-08-10T05:55:32.486Z,101892.34
2022-08-10T06:00:40.663Z,101881.00
2022-08-10T06:05:44.947Z,101883.63
2022-08-10T06:12:21.682Z,101883.28
2022-08-10T06:16:09.841Z,101881.09
2022-08-10T06:21:11.731Z,101886.78
2022-08-10T06:26:16.420Z,101884.00
2022-08-10T06:31:20.027Z,101881.22
2022-08-10T06:36:22.960Z,101891.31
2022-08-10T06:42:14.934Z,101886.78
2022-08-10T06:46:49.852Z,101879.41
2022-08-10T06:51:57.148Z,101883.03
2022-08-10T06:57:17.356Z,101889.66
2022-08-10T07:02:27.351Z,101889.88
2022-08-10T07:07:32.150Z,101894.19
2022-08-10T07:12:36.581Z,101895.44
2022-08-10T07:17:39.698Z,101894.53
2022-08-10T07:23:08.261Z,101892.00
2022-08-10T07:28:03.559Z,101889.16
2022-08-10T07:33:05.615Z,101875.94
2022-08-10T07:38:07.487Z,101877.19
2022-08-10T07:43:09.878Z,101875.69
2022-08-10T07:48:16.439Z,101868.25
2022-08-10T07:53:20.133Z,101880.94
2022-08-10T07:58:25.077Z,101874.34
2022-08-10T08:03:28.733Z,101875.88
2022-08-10T08:08:30.912Z,101873.09
2022-08-10T08:13:33.922Z,101869.94
2022-08-10T08:18:37.079Z,101869.78
2022-08-10T08:24:14.786Z,101871.78
2022-08-10T08:29:04.867Z,101870.06
2022-08-10T08:34:07.936Z,101866.75
2022-08-10T08:39:10.611Z,101857.63
2022-08-10T08:44:24.327Z,101858.06
2022-08-10T08:50:08.318Z,101849.31
2022-08-10T08:56:04.062Z,101849.00
2022-08-10T09:00:48.399Z,101838.91
2022-08-10T09:06:00.167Z,101833.16
2022-08-10T09:11:20.295Z,101831.53
2022-08-10T09:16:46.909Z,101817.09
2022-08-10T09:21:58.673Z,101805.16
2022-08-10T09:27:19.331Z,101804.63
2022-08-10T09:36:14.847Z,101795.00
2022-08-10T09:38:06.132Z,101799.09
2022-08-10T09:43:26.271Z,101795.19
2022-08-10T09:48:31.072Z,101775.38
2022-08-10T09:53:44.610Z,101773.00
2022-08-10T09:59:27.031Z,101770.72
2022-08-10T10:04:25.937Z,101758.06
2022-08-10T10:09:36.696Z,101749.84
2022-08-10T10:15:09.041Z,101744.34
2022-08-10T10:20:15.418Z,101739.00
2022-08-10T10:25:50.847Z,101745.69
2022-08-10T10:31:00.973Z,101731.28
2022-08-10T10:36:03.076Z,101722.59
2022-08-10T10:41:07.225Z,101724.97
2022-08-10T10:46:11.602Z,101712.47
2022-08-10T10:51:31.841Z,101707.41
2022-08-10T10:56:42.592Z,101693.44
2022-08-10T11:01:55.903Z,101690.88
2022-08-10T11:07:13.154Z,101680.13
2022-08-10T11:12:23.255Z,101672.34
2022-08-10T11:17:31.945Z,101671.03
2022-08-10T11:22:41.230Z,101663.16
2022-08-10T11:27:48.854Z,101670.78
2022-08-10T11:33:10.462Z,101655.63
2022-08-10T11:38:32.900Z,101654.16
2022-08-10T11:43:42.122Z,101648.84
2022-08-10T11:48:53.693Z,101635.63
2022-08-10T11:54:04.754Z,101634.88
2022-08-10T11:59:24.930Z,101627.53
2022-08-10T12:04:27.895Z,101623.16
2022-08-10T12:10:05.582Z,101615.03
2022-08-10T12:14:59.379Z,101614.19
2022-08-10T12:20:13.538Z,101611.06
2022-08-10T12:25:56.055Z,101605.00
2022-08-10T12:30:48.896Z,101590.56
2022-08-10T12:36:17.349Z,101580.66
2022-08-10T12:41:41.567Z,101578.59
2022-08-10T12:46:51.055Z,101578.59
2022-08-10T12:52:15.870Z,101565.66
2022-08-10T12:57:19.185Z,101565.78
2022-08-10T13:02:26.349Z,101572.88
2022-08-10T13:08:25.844Z,101562.00
2022-08-10T13:12:55.725Z,101556.88
2022-08-10T13:17:59.566Z,101558.84
2022-08-10T13:23:02.432Z,101543.56
2022-08-10T13:28:35.945Z,101535.34
2022-08-10T13:34:41.000Z,101515.53
2022-08-10T13:38:50.704Z,101524.94
2022-08-10T13:43:54.474Z,101521.09
2022-08-10T13:48:57.799Z,101506.44
2022-08-10T13:54:01.647Z,101505.91
2022-08-10T13:59:07.903Z,101495.25
2022-08-10T14:04:12.958Z,101497.56
2022-08-10T14:09:17.673Z,101496.78
2022-08-10T14:14:20.702Z,101491.06
2022-08-10T14:19:27.714Z,101485.38
2022-08-10T14:24:30.332Z,101478.44
2022-08-10T14:29:33.547Z,101466.41
2022-08-10T14:36:08.433Z,101469.66
2022-08-10T14:40:02.667Z,101468.69
2022-08-10T14:45:19.110Z,101462.91
2022-08-10T14:50:32.520Z,101461.97
2022-08-10T14:55:58.843Z,101459.09
2022-08-10T15:00:56.994Z,101440.94
2022-08-10T15:05:59.967Z,101449.88
2022-08-10T15:11:01.712Z,101449.41
2022-08-10T15:16:13.546Z,101452.88
2022-08-10T15:21:17.550Z,101439.56
2022-08-10T15:26:21.741Z,101430.88
2022-08-10T15:31:23.629Z,101430.25
2022-08-10T15:36:44.760Z,101432.63
2022-08-10T15:41:59.084Z,101420.66
2022-08-10T15:47:03.990Z,101404.13
2022-08-10T15:52:13.176Z,101414.50
2022-08-10T15:57:37.425Z,101406.88
2022-08-10T16:02:45.101Z,101405.56
2022-08-10T16:07:50.599Z,101413.72
2022-08-10T16:12:59.852Z,101401.69
2022-08-10T16:18:04.608Z,101403.75
2022-08-10T16:23:08.555Z,101395.41
2022-08-10T16:28:11.047Z,101404.28
2022-08-10T16:33:28.086Z,101397.66
2022-08-10T16:38:50.155Z,101401.59
2022-08-10T16:43:51.813Z,101396.25
2022-08-10T16:48:53.749Z,101390.34
2022-08-10T16:53:58.909Z,101394.03
2022-08-10T16:59:00.400Z,101385.59
2022-08-10T17:04:05.762Z,101385.72
2022-08-10T17:09:18.521Z,101385.66
2022-08-10T17:14:24.302Z,101377.88
2022-08-10T17:19:26.592Z,101387.50
2022-08-10T17:24:30.204Z,101384.25
2022-08-10T17:29:57.519Z,101370.13
2022-08-10T17:34:57.818Z,101377.81
2022-08-10T17:40:05.953Z,101377.66
2022-08-10T17:45:13.319Z,101378.88
2022-08-10T17:50:23.399Z,101377.19
2022-08-10T17:55:24.998Z,101379.88
2022-08-10T18:00:26.462Z,101382.56
2022-08-10T18:05:32.096Z,101376.88
2022-08-10T18:10:33.553Z,101385.84
2022-08-10T18:15:39.175Z,101381.53
2022-08-10T18:20:41.269Z,101389.47
2022-08-10T18:25:44.421Z,101389.22
2022-08-10T18:30:48.666Z,101400.47
2022-08-10T18:35:51.364Z,101396.59
2022-08-10T18:40:56.863Z,101391.78
2022-08-10T18:46:00.011Z,101394.97
2022-08-10T18:51:05.925Z,101404.06
2022-08-10T18:56:26.602Z,101405.78
2022-08-10T19:01:34.093Z,101417.75
2022-08-10T19:06:58.946Z,101419.06
2022-08-10T19:12:00.268Z,101416.84
2022-08-10T19:17:01.587Z,101420.41
2022-08-10T19:22:20.203Z,101426.31
2022-08-10T19:27:33.881Z,101433.81
2022-08-10T19:32:53.866Z,101430.78
2022-08-10T19:38:32.098Z,101435.75
2022-08-10T19:44:00.884Z,101439.63
2022-08-10T19:49:13.908Z,101446.97
2022-08-10T19:54:15.238Z,101441.22
2022-08-10T20:00:16.804Z,101450.63
2022-08-10T20:05:18.192Z,101452.59
2022-08-10T20:10:31.758Z,101459.78
2022-08-10T20:15:42.616Z,101463.72
2022-08-10T20:20:53.329Z,101468.34
2022-08-10T20:25:54.659Z,101476.59
2022-08-10T20:31:02.455Z,101478.00
2022-08-10T20:36:20.877Z,101492.53
2022-08-10T20:41:23.009Z,101495.81
2022-08-10T20:46:30.862Z,101491.84
2022-08-10T20:51:59.578Z,101486.09
2022-08-10T20:57:53.517Z,101501.03
2022-08-10T21:02:48.758Z,101500.41
2022-08-10T21:08:02.062Z,101497.00
2022-08-10T21:13:09.801Z,101499.28
2022-08-10T21:18:11.416Z,101499.25
2022-08-10T21:23:13.996Z,101501.16
2022-08-10T21:28:30.742Z,101504.34
2022-08-10T21:33:42.784Z,101498.38
2022-08-10T21:38:44.077Z,101504.25
2022-08-10T21:44:25.666Z,101507.72
2022-08-10T21:49:57.464Z,101504.66
2022-08-10T21:55:57.473Z,101517.47
2022-08-10T22:01:12.927Z,101509.41
2022-08-10T22:06:40.212Z,101496.50
2022-08-10T22:12:31.199Z,101498.25
2022-08-10T22:18:03.624Z,101505.19
2022-08-10T22:23:28.305Z,101508.19
2022-08-10T22:28:48.862Z,101507.03
2022-08-10T22:34:27.991Z,101498.94
2022-08-10T22:40:13.413Z,101496.63
2022-08-10T22:45:35.702Z,101495.81
2022-08-10T22:50:37.435Z,101500.06
2022-08-10T22:55:58.460Z,101501.69
2022-08-10T23:01:05.697Z,101499.34
2022-08-10T23:06:10.099Z,101499.88
2022-08-10T23:11:16.117Z,101493.97
2022-08-10T23:16:37.646Z,101496.59
2022-08-10T23:22:05.764Z,101482.84
2022-08-10T23:27:13.101Z,101498.69
2022-08-10T23:32:32.532Z,101495.97
2022-08-10T23:37:34.680Z,101501.47
2022-08-10T23:42:38.575Z,101496.03
2022-08-10T23:47:42.511Z,101504.19
2022-08-10T23:52:54.960Z,101504.63
2022-08-10T23:58:01.627Z,101512.13
